Time;durP1;ratioP1;P1;durP2;ratioP2;P2;SDS_P1;SDS_P2;PMS_P1;PMS_P2;Temp;Humidity;BMP_temperature;BMP_pressure;BME280_temperature;BME280_humidity;BME280_pressure;Samples;Min_cycle;Max_cycle;Signal;HPM_P1;HPM_P2
2023/05/17 00:01:00;;;;;;;;;;;;;;;13.37;100.00;99341.09;5033903;28;1886;-53
2023/05/17 00:03:27;;;;;;;;;;;;;;;13.31;100.00;99351.16;5034131;28;868;-53
2023/05/17 00:05:54;;;;;;;;;;;;;;;13.24;100.00;99338.19;5033778;28;899;-51
2023/05/17 00:08:20;;;;;;;;;;;;;;;13.20;100.00;99351.34;5033852;28;820;-52
2023/05/17 00:10:48;;;;;;;;;;;;;;;13.07;100.00;99360.34;5033785;28;1357;-54
2023/05/17 00:13:14;;;;;;;;;;;;;;;12.96;100.00;99365.34;5033822;28;840;-53
2023/05/17 00:15:42;;;;;;;;;;;;;;;12.83;100.00;99379.09;5033698;28;930;-54
2023/05/17 00:18:09;;;;;;;;;;;;;;;12.73;100.00;99365.47;5033520;28;871;-54
2023/05/17 00:20:36;;;;;;;;;;;;;;;12.63;100.00;99326.44;5033077;28;1905;-54
2023/05/17 00:23:03;;;;;;;;;;;;;;;12.57;100.00;99322.59;5033480;28;816;-53
2023/05/17 00:25:30;;;;;;;;;;;;;;;12.55;100.00;99288.22;5033557;28;824;-53
2023/05/17 00:27:57;;;;;;;;;;;;;;;12.51;100.00;99271.66;5033342;28;852;-54
2023/05/17 00:30:24;;;;;;;;;;;;;;;12.49;100.00;99254.66;5033415;28;828;-53
2023/05/17 00:32:51;;;;;;;;;;;;;;;12.53;100.00;99247.06;5033359;28;840;-54
2023/05/17 00:35:19;;;;;;;;;;;;;;;12.66;100.00;99284.00;5033121;28;942;-53
2023/05/17 00:37:47;;;;;;;;;;;;;;;12.79;100.00;99292.41;5033235;28;906;-54
2023/05/17 00:40:15;;;;;;;;;;;;;;;12.88;100.00;99294.59;5033345;28;884;-53
2023/05/17 00:42:43;;;;;;;;;;;;;;;12.97;100.00;99327.28;5033049;28;1894;-55
2023/05/17 00:45:10;;;;;;;;;;;;;;;13.11;100.00;99334.53;5033028;28;927;-54
2023/05/17 00:47:37;;;;;;;;;;;;;;;13.25;100.00;99351.63;5033056;28;847;-53
2023/05/17 00:50:05;;;;;;;;;;;;;;;13.36;100.00;99370.06;5032980;28;805;-53
2023/05/17 00:52:32;;;;;;;;;;;;;;;13.39;100.00;99389.41;5032932;28;915;-53
2023/05/17 00:54:59;;;;;;;;;;;;;;;13.38;100.00;99401.72;5032680;28;880;-50
2023/05/17 00:57:28;;;;;;;;;;;;;;;13.35;100.00;99374.81;5032890;28;816;-54
2023/05/17 00:59:55;;;;;;;;;;;;;;;13.31;100.00;99371.34;5032776;28;828;-54
2023/05/17 01:02:23;;;;;;;;;;;;;;;13.31;100.00;99374.13;5032688;28;1957;-54
2023/05/17 01:04:50;;;;;;;;;;;;;;;13.24;100.00;99372.25;5032732;28;903;-55
2023/05/17 01:07:17;;;;;;;;;;;;;;;13.01;100.00;99372.38;5032591;28;864;-54
2023/05/17 01:09:44;;;;;;;;;;;;;;;12.84;100.00;99379.88;5032553;28;955;-53
2023/05/17 01:12:11;;;;;;;;;;;;;;;12.70;100.00;99369.09;5032288;28;1419;-54
2023/05/17 01:14:38;;;;;;;;;;;;;;;12.58;100.00;99332.47;5032464;28;819;-53
2023/05/17 01:17:14;;;;;;;;;;;;;;;12.41;100.00;99320.53;5032498;28;821;-52
2023/05/17 01:19:50;;;;;;;;;;;;;;;12.34;100.00;99309.59;5032461;28;816;-53
2023/05/17 01:22:24;;;;;;;;;;;;;;;12.32;100.00;99308.47;5032233;28;2001;-54
2023/05/17 01:25:09;;;;;;;;;;;;;;;12.32;100.00;99287.09;5032211;28;887;-54
2023/05/17 01:27:38;;;;;;;;;;;;;;;12.30;100.00;99264.56;5032241;28;832;-55
2023/05/17 01:30:09;;;;;;;;;;;;;;;12.32;100.00;99244.75;5032293;28;835;-54
2023/05/17 01:32:36;;;;;;;;;;;;;;;12.28;100.00;99238.50;5031550;28;840;-54
2023/05/17 01:35:04;;;;;;;;;;;;;;;12.28;100.00;99246.81;5032433;28;906;-55
2023/05/17 01:37:31;;;;;;;;;;;;;;;12.20;100.00;99218.44;5032143;28;859;-55
2023/05/17 01:39:58;;;;;;;;;;;;;;;12.16;100.00;99184.50;5032018;28;882;-57
2023/05/17 01:42:28;;;;;;;;;;;;;;;12.17;100.00;99192.38;5031987;28;1890;-56
2023/05/17 01:45:13;;;;;;;;;;;;;;;12.18;100.00;99182.88;5031933;28;899;-56
2023/05/17 01:48:03;;;;;;;;;;;;;;;12.23;100.00;99168.50;5030687;28;938;-56
2023/05/17 01:50:31;;;;;;;;;;;;;;;12.35;100.00;99163.50;5026322;28;1553;-55
2023/05/17 01:52:58;;;;;;;;;;;;;;;12.41;100.00;99143.16;5032008;28;835;-56
2023/05/17 01:55:42;;;;;;;;;;;;;;;12.52;100.00;99137.38;5031732;28;804;-56
2023/05/17 01:58:10;;;;;;;;;;;;;;;12.59;100.00;99122.59;5032025;28;871;-55
2023/05/17 02:00:38;;;;;;;;;;;;;;;12.69;100.00;99110.44;5031697;28;1890;-56
2023/05/17 02:03:11;;;;;;;;;;;;;;;12.82;100.00;99110.53;5030368;28;1199;-55
2023/05/17 02:05:38;;;;;;;;;;;;;;;12.91;100.00;99121.00;5031764;28;910;-56
2023/05/17 02:08:05;;;;;;;;;;;;;;;13.00;100.00;99124.72;5031638;28;875;-54
2023/05/17 02:10:31;;;;;;;;;;;;;;;13.05;100.00;99124.19;5031914;28;1004;-54
2023/05/17 02:12:58;;;;;;;;;;;;;;;13.10;100.00;99133.19;5031361;28;1276;-54
2023/05/17 02:15:24;;;;;;;;;;;;;;;13.15;100.00;99147.34;5031586;28;824;-55
2023/05/17 02:17:51;;;;;;;;;;;;;;;13.23;100.00;99162.59;5031470;28;852;-54
2023/05/17 02:20:18;;;;;;;;;;;;;;;13.30;100.00;99180.31;5031540;28;911;-55
2023/05/17 02:22:45;;;;;;;;;;;;;;;13.32;100.00;99192.53;5031424;28;1910;-56
2023/05/17 02:25:11;;;;;;;;;;;;;;;13.34;100.00;99209.53;5031369;28;820;-54
2023/05/17 02:27:38;;;;;;;;;;;;;;;13.28;100.00;99225.91;5031465;28;898;-55
2023/05/17 02:30:05;;;;;;;;;;;;;;;13.21;100.00;99239.16;5031357;28;864;-54
2023/05/17 02:32:32;;;;;;;;;;;;;;;13.14;100.00;99242.88;5031124;28;1350;-55
2023/05/17 02:34:59;;;;;;;;;;;;;;;13.08;100.00;99253.72;5031374;28;843;-55
2023/05/17 02:37:26;;;;;;;;;;;;;;;13.06;100.00;99264.47;5031330;28;915;-55
2023/05/17 02:39:52;;;;;;;;;;;;;;;13.04;100.00;99264.13;5029962;28;1192;-55
2023/05/17 02:42:19;;;;;;;;;;;;;;;13.01;100.00;99255.88;5031255;28;1886;-55
2023/05/17 02:44:47;;;;;;;;;;;;;;;12.98;100.00;99263.06;5034535;28;828;-54
2023/05/17 02:47:14;;;;;;;;;;;;;;;12.95;100.00;99269.50;5035272;28;975;-54
2023/05/17 02:49:41;;;;;;;;;;;;;;;12.93;100.00;99277.47;5035285;28;796;-54
2023/05/17 02:52:07;;;;;;;;;;;;;;;12.92;100.00;99278.66;5035158;28;963;-55
2023/05/17 02:54:34;;;;;;;;;;;;;;;12.91;100.00;99279.91;5035421;28;832;-55
2023/05/17 02:57:02;;;;;;;;;;;;;;;12.92;100.00;99277.91;5035123;28;883;-54
2023/05/17 02:59:29;;;;;;;;;;;;;;;12.93;100.00;99271.91;5035269;28;930;-53
2023/05/17 03:01:55;;;;;;;;;;;;;;;12.93;100.00;99271.13;5034972;28;1940;-54
2023/05/17 03:04:22;;;;;;;;;;;;;;;12.89;100.00;99260.13;5035014;28;896;-54
2023/05/17 03:06:49;;;;;;;;;;;;;;;12.87;100.00;99268.09;5034903;28;812;-53
2023/05/17 03:09:16;;;;;;;;;;;;;;;12.88;100.00;99256.56;5034972;28;895;-54
2023/05/17 03:11:42;;;;;;;;;;;;;;;12.90;100.00;99267.22;5034738;28;1246;-55
2023/05/17 03:14:09;;;;;;;;;;;;;;;12.90;100.00;99256.13;5034793;28;859;-54
2023/05/17 03:16:35;;;;;;;;;;;;;;;12.90;100.00;99272.00;5034810;28;1057;-55
2023/05/17 03:19:02;;;;;;;;;;;;;;;12.86;100.00;99261.75;5034710;28;820;-55
2023/05/17 03:21:28;;;;;;;;;;;;;;;12.83;100.00;99276.50;5034600;28;1914;-55
2023/05/17 03:23:55;;;;;;;;;;;;;;;12.83;100.00;99284.03;5034568;28;815;-55
2023/05/17 03:26:22;;;;;;;;;;;;;;;12.81;100.00;99269.81;5034666;28;823;-54
2023/05/17 03:28:50;;;;;;;;;;;;;;;12.73;100.00;99283.03;5034630;28;845;-55
2023/05/17 03:31:16;;;;;;;;;;;;;;;12.67;100.00;99279.22;5034500;28;836;-54
2023/05/17 03:33:43;;;;;;;;;;;;;;;12.60;100.00;99291.25;5034478;28;816;-54
2023/05/17 03:36:10;;;;;;;;;;;;;;;12.58;100.00;99303.97;5034431;28;871;-54
2023/05/17 03:38:37;;;;;;;;;;;;;;;12.58;100.00;99288.13;5034355;28;848;-55
2023/05/17 03:41:04;;;;;;;;;;;;;;;12.56;100.00;99282.22;5034262;28;1944;-55
2023/05/17 03:43:30;;;;;;;;;;;;;;;12.53;100.00;99282.31;5034363;28;878;-54
2023/05/17 03:45:56;;;;;;;;;;;;;;;12.52;100.00;99272.41;5034417;28;867;-55
2023/05/17 03:48:23;;;;;;;;;;;;;;;12.56;100.00;99267.59;5034444;28;877;-55
2023/05/17 03:50:50;;;;;;;;;;;;;;;12.58;100.00;99279.03;5034467;28;874;-55
2023/05/17 03:53:17;;;;;;;;;;;;;;;12.54;100.00;99297.72;5034293;28;824;-56
2023/05/17 03:55:44;;;;;;;;;;;;;;;12.52;100.00;99298.16;5033451;28;840;-56
2023/05/17 03:58:11;;;;;;;;;;;;;;;12.53;100.00;99312.81;5034274;28;1016;-56
2023/05/17 04:00:36;;;;;;;;;;;;;;;12.53;100.00;99307.25;5034448;28;1939;-56
2023/05/17 04:03:03;;;;;;;;;;;;;;;12.52;100.00;99305.69;5033855;28;840;-57
2023/05/17 04:05:30;;;;;;;;;;;;;;;12.58;100.00;99313.06;5033849;28;828;-57
2023/05/17 04:07:57;;;;;;;;;;;;;;;12.63;100.00;99311.78;5033802;28;867;-61
2023/05/17 04:10:24;;;;;;;;;;;;;;;12.64;100.00;99308.59;5033770;28;1421;-60
2023/05/17 04:12:51;;;;;;;;;;;;;;;12.70;100.00;99313.66;5033566;28;1403;-60
2023/05/17 04:15:17;;;;;;;;;;;;;;;12.75;100.00;99310.34;5033713;28;848;-59
2023/05/17 04:17:44;;;;;;;;;;;;;;;12.72;100.00;99325.88;5032308;28;1184;-64
2023/05/17 04:20:12;;;;;;;;;;;;;;;12.74;100.00;99333.72;5032275;28;1326;-65
2023/05/17 04:22:38;;;;;;;;;;;;;;;12.74;100.00;99329.00;5033379;28;1971;-62
2023/05/17 04:25:07;;;;;;;;;;;;;;;12.73;100.00;99340.50;5033383;28;828;-58
2023/05/17 04:27:34;;;;;;;;;;;;;;;12.70;100.00;99333.81;5034018;28;809;-58
2023/05/17 04:30:01;;;;;;;;;;;;;;;12.66;100.00;99328.34;5032608;28;777;-58
2023/05/17 04:32:28;;;;;;;;;;;;;;;12.65;100.00;99292.72;5032236;28;1227;-58
2023/05/17 04:34:55;;;;;;;;;;;;;;;12.63;100.00;99292.38;5033445;28;871;-56
2023/05/17 04:37:23;;;;;;;;;;;;;;;12.64;100.00;99269.00;5033593;28;816;-57
2023/05/17 04:39:51;;;;;;;;;;;;;;;12.66;100.00;99285.97;5032478;28;789;-56
2023/05/17 04:42:19;;;;;;;;;;;;;;;12.80;100.00;99321.72;5033228;28;1886;-56
2023/05/17 04:44:46;;;;;;;;;;;;;;;12.93;100.00;99332.13;5033232;28;871;-56
2023/05/17 04:47:13;;;;;;;;;;;;;;;13.04;100.00;99358.44;5033131;28;831;-56
2023/05/17 04:49:40;;;;;;;;;;;;;;;13.19;100.00;99363.69;5033055;28;829;-56
2023/05/17 04:52:08;;;;;;;;;;;;;;;13.23;100.00;99370.72;5032944;28;919;-56
2023/05/17 04:54:35;;;;;;;;;;;;;;;13.21;100.00;99370.38;5033040;28;831;-56
2023/05/17 04:57:02;;;;;;;;;;;;;;;13.15;100.00;99385.97;5032866;28;880;-56
2023/05/17 04:59:29;;;;;;;;;;;;;;;13.17;100.00;99382.75;5032911;28;883;-56
2023/05/17 05:01:56;;;;;;;;;;;;;;;13.07;100.00;99363.13;5032762;28;1910;-57
2023/05/17 05:04:24;;;;;;;;;;;;;;;13.01;100.00;99353.75;5032717;28;879;-56
2023/05/17 05:06:51;;;;;;;;;;;;;;;12.97;100.00;99324.53;5032719;28;898;-57
2023/05/17 05:09:19;;;;;;;;;;;;;;;12.90;100.00;99321.91;5032732;28;1069;-58
2023/05/17 05:11:46;;;;;;;;;;;;;;;12.97;100.00;99321.75;5032487;28;1346;-58
2023/05/17 05:14:12;;;;;;;;;;;;;;;13.10;100.00;99319.88;5032538;28;864;-57
2023/05/17 05:16:38;;;;;;;;;;;;;;;13.30;100.00;99310.75;5032738;28;855;-57
2023/05/17 05:19:05;;;;;;;;;;;;;;;13.50;100.00;99324.53;5032551;28;875;-57
2023/05/17 05:21:32;;;;;;;;;;;;;;;13.66;100.00;99336.41;5032243;28;1913;-57
2023/05/17 05:23:58;;;;;;;;;;;;;;;13.66;100.00;99325.31;5032412;28;890;-57
2023/05/17 05:26:25;;;;;;;;;;;;;;;13.62;100.00;99340.50;5032351;28;922;-57
2023/05/17 05:28:52;;;;;;;;;;;;;;;13.56;100.00;99329.13;5032515;28;890;-58
2023/05/17 05:31:19;;;;;;;;;;;;;;;13.66;100.00;99322.53;5032350;28;843;-57
2023/05/17 05:33:46;;;;;;;;;;;;;;;13.85;100.00;99328.41;5032302;28;820;-57
2023/05/17 05:36:13;;;;;;;;;;;;;;;14.00;100.00;99329.59;5032057;28;883;-57
2023/05/17 05:38:39;;;;;;;;;;;;;;;14.28;100.00;99336.38;5032227;28;883;-57
2023/05/17 05:41:06;;;;;;;;;;;;;;;14.51;100.00;99342.91;5032071;28;1939;-57
2023/05/17 05:43:34;;;;;;;;;;;;;;;14.68;100.00;99344.44;5032117;28;871;-57
2023/05/17 05:46:01;;;;;;;;;;;;;;;14.77;100.00;99352.13;5032054;28;843;-57
2023/05/17 05:48:28;;;;;;;;;;;;;;;14.79;100.00;99363.59;5030670;28;873;-56
2023/05/17 05:50:55;;;;;;;;;;;;;;;14.84;100.00;99365.03;5031796;28;864;-57
2023/05/17 05:53:22;;;;;;;;;;;;;;;14.85;100.00;99377.72;5032046;28;852;-56
2023/05/17 05:55:49;;;;;;;;;;;;;;;14.97;100.00;99363.06;5032077;28;919;-57
2023/05/17 05:58:15;;;;;;;;;;;;;;;15.07;100.00;99369.53;5032090;28;824;-56
2023/05/17 06:00:42;;;;;;;;;;;;;;;15.22;100.00;99379.00;5031777;28;1890;-57
2023/05/17 06:03:09;;;;;;;;;;;;;;;15.30;100.00;99380.34;5031857;28;886;-57
2023/05/17 06:05:37;;;;;;;;;;;;;;;15.43;100.00;99385.91;5031763;28;860;-57
2023/05/17 06:08:03;;;;;;;;;;;;;;;15.56;100.00;99385.91;5031680;28;828;-56
2023/05/17 06:10:31;;;;;;;;;;;;;;;15.68;100.00;99398.25;5032091;28;940;-56
2023/05/17 06:12:57;;;;;;;;;;;;;;;15.70;100.00;99402.19;5031376;28;1343;-57
2023/05/17 06:15:25;;;;;;;;;;;;;;;15.67;100.00;99408.63;5031725;28;820;-56
2023/05/17 06:17:52;;;;;;;;;;;;;;;15.67;100.00;99419.00;5031050;28;863;-56
2023/05/17 06:20:19;;;;;;;;;;;;;;;15.71;100.00;99416.88;5031429;28;930;-56
2023/05/17 06:22:45;;;;;;;;;;;;;;;15.82;100.00;99419.34;5031477;28;1910;-56
2023/05/17 06:25:13;;;;;;;;;;;;;;;15.98;100.00;99407.28;5031829;28;872;-56
2023/05/17 06:27:40;;;;;;;;;;;;;;;16.03;100.00;99392.78;5031497;28;859;-56
2023/05/17 06:30:07;;;;;;;;;;;;;;;16.16;100.00;99390.72;5031460;28;820;-56
2023/05/17 06:32:34;;;;;;;;;;;;;;;16.37;100.00;99377.28;5031513;28;858;-56
2023/05/17 06:35:01;;;;;;;;;;;;;;;16.47;100.00;99378.91;5031387;28;817;-56
2023/05/17 06:37:28;;;;;;;;;;;;;;;16.56;100.00;99381.78;5031335;28;836;-56
2023/05/17 06:40:07;;;;;;;;;;;;;;;16.69;100.00;99365.75;5031359;28;820;-56
2023/05/17 06:42:34;;;;;;;;;;;;;;;16.86;100.00;99369.13;5031305;28;1943;-56
2023/05/17 06:45:01;;;;;;;;;;;;;;;16.95;100.00;99371.19;5031249;28;824;-55
2023/05/17 06:47:28;;;;;;;;;;;;;;;17.04;100.00;99371.22;5031255;28;907;-55
2023/05/17 06:49:55;;;;;;;;;;;;;;;17.01;100.00;99376.97;5031153;28;840;-56
2023/05/17 06:52:22;;;;;;;;;;;;;;;16.94;100.00;99378.00;5031097;28;981;-55
2023/05/17 06:54:49;;;;;;;;;;;;;;;16.90;100.00;99383.72;5031241;28;898;-55
2023/05/17 06:57:15;;;;;;;;;;;;;;;17.03;100.00;99394.81;5031183;28;812;-55
2023/05/17 06:59:42;;;;;;;;;;;;;;;17.01;100.00;99396.50;5031139;28;840;-55
2023/05/17 07:02:08;;;;;;;;;;;;;;;17.03;100.00;99399.63;5031011;28;1882;-55
2023/05/17 07:04:35;;;;;;;;;;;;;;;17.05;100.00;99406.31;5031093;28;816;-54
2023/05/17 07:07:02;;;;;;;;;;;;;;;17.03;100.00;99408.00;5031002;28;953;-53
2023/05/17 07:09:28;;;;;;;;;;;;;;;17.05;100.00;99408.31;5031153;28;879;-54
2023/05/17 07:11:55;;;;;;;;;;;;;;;17.05;100.00;99406.31;5030750;28;1381;-55
2023/05/17 07:14:22;;;;;;;;;;;;;;;16.94;100.00;99419.88;5031024;28;899;-54
2023/05/17 07:16:48;;;;;;;;;;;;;;;16.97;100.00;99410.59;5030990;28;1033;-54
2023/05/17 07:19:14;;;;;;;;;;;;;;;16.87;100.00;99406.19;5031192;28;864;-54
2023/05/17 07:21:41;;;;;;;;;;;;;;;16.82;100.00;99404.75;5030886;28;1913;-54
2023/05/17 07:24:08;;;;;;;;;;;;;;;16.66;100.00;99400.16;5030943;28;831;-54
2023/05/17 07:26:35;;;;;;;;;;;;;;;16.59;100.00;99396.81;5030911;28;914;-54
2023/05/17 07:29:01;;;;;;;;;;;;;;;16.45;100.00;99389.72;5030872;28;891;-55
2023/05/17 07:31:28;;;;;;;;;;;;;;;16.32;100.00;99392.56;5033420;28;851;-55
2023/05/17 07:33:55;;;;;;;;;;;;;;;16.07;100.00;99371.91;5034453;28;840;-54
2023/05/17 07:36:21;;;;;;;;;;;;;;;16.04;100.00;99367.22;5034478;28;875;-55
2023/05/17 07:38:47;;;;;;;;;;;;;;;16.07;100.00;99369.13;5034274;28;816;-54
2023/05/17 07:41:15;;;;;;;;;;;;;;;16.17;100.00;99369.19;5034263;28;1949;-55
2023/05/17 07:43:42;;;;;;;;;;;;;;;16.32;100.00;99364.69;5034544;28;844;-54
2023/05/17 07:46:09;;;;;;;;;;;;;;;16.37;100.00;99368.91;5034305;28;878;-56
2023/05/17 07:48:36;;;;;;;;;;;;;;;16.29;100.00;99380.31;5032781;28;1227;-55
2023/05/17 07:51:03;;;;;;;;;;;;;;;16.19;100.00;99380.69;5034164;28;855;-55
2023/05/17 07:53:30;;;;;;;;;;;;;;;16.13;100.00;99384.06;5034069;28;875;-55
2023/05/17 07:55:57;;;;;;;;;;;;;;;16.16;100.00;99378.81;5034110;28;863;-54
2023/05/17 07:58:24;;;;;;;;;;;;;;;16.34;100.00;99376.16;5034078;28;871;-53
2023/05/17 08:00:51;;;;;;;;;;;;;;;16.51;100.00;99379.53;5033859;28;1949;-55
2023/05/17 08:03:18;;;;;;;;;;;;;;;16.70;100.00;99375.66;5033970;28;922;-55
2023/05/17 08:05:44;;;;;;;;;;;;;;;16.85;100.00;99381.50;5033840;28;824;-55
2023/05/17 08:08:11;;;;;;;;;;;;;;;17.01;100.00;99388.13;5033811;28;828;-55
2023/05/17 08:10:38;;;;;;;;;;;;;;;17.16;100.00;99388.38;5034157;28;943;-55
2023/05/17 08:13:05;;;;;;;;;;;;;;;17.19;100.00;99388.22;5033747;28;848;-54
2023/05/17 08:15:32;;;;;;;;;;;;;;;17.14;100.00;99388.81;5033565;28;891;-53
2023/05/17 08:17:59;;;;;;;;;;;;;;;17.22;100.00;99369.75;5033586;28;824;-54
2023/05/17 08:20:26;;;;;;;;;;;;;;;17.12;100.00;99363.38;5033616;28;840;-54
2023/05/17 08:22:53;;;;;;;;;;;;;;;16.92;100.00;99372.88;5033483;28;1899;-52
2023/05/17 08:25:20;;;;;;;;;;;;;;;17.00;100.00;99370.59;5033488;28;906;-55
2023/05/17 08:27:46;;;;;;;;;;;;;;;17.23;100.00;99365.75;5033395;28;927;-55
2023/05/17 08:30:14;;;;;;;;;;;;;;;17.47;100.00;99360.41;5033444;28;879;-55
2023/05/17 08:32:41;;;;;;;;;;;;;;;17.62;100.00;99357.81;5033372;28;856;-55
2023/05/17 08:35:07;;;;;;;;;;;;;;;17.65;100.00;99345.72;5033660;28;871;-55
2023/05/17 08:37:34;;;;;;;;;;;;;;;17.72;100.00;99343.38;5033299;28;812;-55
2023/05/17 08:40:01;;;;;;;;;;;;;;;17.78;100.00;99342.78;5033350;28;878;-55
2023/05/17 08:42:28;;;;;;;;;;;;;;;17.63;100.00;99343.38;5032805;28;1956;-54
2023/05/17 08:44:55;;;;;;;;;;;;;;;17.44;100.00;99341.78;5033143;28;866;-54
2023/05/17 08:47:28;;;;;;;;;;;;;;;17.34;100.00;99335.38;5033285;28;847;-55
2023/05/17 08:50:04;;;;;;;;;;;;;;;17.20;100.00;99344.31;5033017;28;919;-56
2023/05/17 08:52:31;;;;;;;;;;;;;;;16.82;100.00;99337.78;5033117;28;824;-56
2023/05/17 08:55:00;;;;;;;;;;;;;;;16.37;100.00;99349.41;5033336;28;906;-56
2023/05/17 08:57:28;;;;;;;;;;;;;;;16.08;100.00;99356.72;5033068;28;957;-56
2023/05/17 08:59:57;;;;;;;;;;;;;;;15.98;100.00;99355.13;5032888;28;820;-55
2023/05/17 09:02:25;;;;;;;;;;;;;;;16.10;100.00;99357.06;5032796;28;1885;-56
2023/05/17 09:04:54;;;;;;;;;;;;;;;15.88;100.00;99353.47;5033042;28;885;-55
2023/05/17 09:07:24;;;;;;;;;;;;;;;15.85;100.00;99355.16;5031464;28;836;-55
2023/05/17 09:09:52;;;;;;;;;;;;;;;16.02;100.00;99352.97;5032860;28;899;-54
2023/05/17 09:12:19;;;;;;;;;;;;;;;16.19;100.00;99361.16;5032229;28;1258;-56
2023/05/17 09:14:46;;;;;;;;;;;;;;;16.44;100.00;99354.72;5032589;28;836;-55
2023/05/17 09:17:15;;;;;;;;;;;;;;;16.73;100.00;99357.25;5032378;28;1080;-56
2023/05/17 09:19:44;;;;;;;;;;;;;;;16.72;100.00;99358.47;5032491;28;832;-56
2023/05/17 09:22:18;;;;;;;;;;;;;;;16.72;100.00;99359.22;5032304;28;1902;-56
2023/05/17 09:24:45;;;;;;;;;;;;;;;16.79;100.00;99366.59;5032396;28;922;-56
2023/05/17 09:27:18;;;;;;;;;;;;;;;16.79;100.00;99365.78;5032433;28;852;-56
2023/05/17 09:29:46;;;;;;;;;;;;;;;16.79;100.00;99366.59;5030957;28;923;-56
2023/05/17 09:32:17;;;;;;;;;;;;;;;17.00;100.00;99358.66;5032285;28;927;-56
2023/05/17 09:34:44;;;;;;;;;;;;;;;17.28;100.00;99343.59;5032173;28;871;-56
2023/05/17 09:37:16;;;;;;;;;;;;;;;17.49;100.00;99338.38;5032198;28;839;-56
2023/05/17 10:10:45;;;;;;;;;;;;;;;16.67;100.00;99356.28;5314448;22;1670;-63
2023/05/17 10:13:14;;;;;;;;;;;;;;;16.72;100.00;99358.47;5051541;28;1068;-60
2023/05/17 10:15:41;;;;;;;;;;;;;;;16.80;100.00;99357.00;5051532;28;820;-63
2023/05/17 10:18:08;;;;;;;;;;;;;;;16.77;100.00;99357.88;5051457;28;863;-63
2023/05/17 10:20:36;;;;;;;;;;;;;;;16.76;100.00;99358.34;5051376;28;870;-63
2023/05/17 10:23:05;;;;;;;;;;;;;;;16.90;100.00;99355.06;5051301;28;1902;-63
2023/05/17 10:25:33;;;;;;;;;;;;;;;16.90;100.00;99355.06;5051344;28;889;-64
2023/05/17 10:28:01;;;;;;;;;;;;;;;17.04;100.00;99354.47;5051383;28;835;-63
2023/05/17 10:30:28;;;;;;;;;;;;;;;17.14;100.00;99344.16;5051296;28;867;-63
2023/05/17 10:32:55;;;;;;;;;;;;;;;17.32;100.00;99346.22;5051320;28;832;-61
2023/05/17 10:35:22;;;;;;;;;;;;;;;17.38;100.00;99329.66;5051223;28;951;-62
2023/05/17 10:37:49;;;;;;;;;;;;;;;17.51;100.00;99319.13;5051276;28;981;-62
2023/05/17 10:40:16;;;;;;;;;;;;;;;17.67;100.00;99309.72;5051177;28;870;-62
2023/05/17 10:42:45;;;;;;;;;;;;;;;17.85;100.00;99297.78;5051373;28;1963;-62
2023/05/17 10:45:12;;;;;;;;;;;;;;;18.31;100.00;99295.78;5051230;28;926;-62
2023/05/17 10:47:42;;;;;;;;;;;;;;;18.67;100.00;99305.34;5051149;28;886;-63
2023/05/17 10:50:13;;;;;;;;;;;;;;;18.95;100.00;99305.28;5051298;28;935;-63
2023/05/17 10:52:48;;;;;;;;;;;;;;;19.26;100.00;99295.81;5051302;28;856;-62
2023/05/17 10:55:19;;;;;;;;;;;;;;;19.29;100.00;99298.44;5051293;28;851;-63
2023/05/17 10:58:07;;;;;;;;;;;;;;;19.18;100.00;99298.97;5051078;28;902;-62
2023/05/17 11:00:38;;;;;;;;;;;;;;;19.32;100.00;99294.69;5051030;28;840;-64
2023/05/17 11:03:27;;;;;;;;;;;;;;;19.41;100.00;99296.66;5051310;28;1874;-61
2023/05/17 11:06:09;;;;;;;;;;;;;;;19.28;100.00;99308.09;5054525;28;958;-64
2023/05/17 11:08:36;;;;;;;;;;;;;;;19.08;100.00;99302.28;5054871;28;879;-62
2023/05/17 11:11:10;;;;;;;;;;;;;;;18.74;100.00;99293.03;5054684;28;1233;-63
2023/05/17 11:13:54;;;;;;;;;;;;;;;18.59;100.00;99292.16;5054831;28;832;-63
2023/05/17 11:16:22;;;;;;;;;;;;;;;18.72;100.00;99284.34;5054765;28;898;-64
2023/05/17 11:18:51;;;;;;;;;;;;;;;18.85;100.00;99275.78;5054811;28;878;-63
2023/05/17 11:21:19;;;;;;;;;;;;;;;18.77;100.00;99276.06;5054893;28;1914;-62
2023/05/17 11:23:47;;;;;;;;;;;;;;;18.51;100.00;99274.91;5054962;28;808;-63
2023/05/17 11:26:27;;;;;;;;;;;;;;;18.34;100.00;99274.47;5054608;28;832;-63
2023/05/17 11:29:01;;;;;;;;;;;;;;;18.28;100.00;99267.94;5054557;28;831;-67
2023/05/17 11:31:33;;;;;;;;;;;;;;;18.39;100.00;99270.25;5054464;28;851;-63
2023/05/17 11:34:08;;;;;;;;;;;;;;;18.76;100.00;99260.53;5036490;28;1391;-63
2023/05/17 11:36:55;;;;;;;;;;;;;;;18.87;100.00;99271.25;5054395;28;938;-63
2023/05/17 11:39:23;;;;;;;;;;;;;;;19.20;100.00;99270.47;5054239;28;847;-63
2023/05/17 11:41:53;;;;;;;;;;;;;;;19.45;100.00;99260.84;5054241;28;1885;-64
2023/05/17 11:44:26;;;;;;;;;;;;;;;19.46;100.00;99258.81;5054283;28;815;-64
2023/05/17 11:46:59;;;;;;;;;;;;;;;19.71;100.00;99261.16;5054237;28;843;-63
2023/05/17 11:49:27;;;;;;;;;;;;;;;20.64;100.00;99266.72;5054151;28;819;-63
2023/05/17 11:51:54;;;;;;;;;;;;;;;21.13;100.00;99264.44;5054271;28;899;-63
2023/05/17 11:54:24;;;;;;;;;;;;;;;21.36;100.00;99262.72;5054055;28;851;-65
2023/05/17 11:56:54;;;;;;;;;;;;;;;21.70;100.00;99271.59;5053913;28;982;-64
2023/05/17 11:59:22;;;;;;;;;;;;;;;21.86;100.00;99289.97;5053934;28;823;-64
2023/05/17 12:01:49;;;;;;;;;;;;;;;22.19;100.00;99298.00;5053902;28;1877;-65
2023/05/17 12:04:26;;;;;;;;;;;;;;;22.47;100.00;99297.53;5053838;28;859;-65
2023/05/17 12:06:53;;;;;;;;;;;;;;;22.32;100.00;99281.56;5053867;28;839;-65
2023/05/17 12:09:23;;;;;;;;;;;;;;;22.00;100.00;99260.97;5053781;28;906;-65
2023/05/17 12:11:50;;;;;;;;;;;;;;;21.20;100.00;99231.06;5053579;28;1188;-64
2023/05/17 12:14:19;;;;;;;;;;;;;;;20.29;100.00;99225.28;5036013;28;860;-65
2023/05/17 12:16:47;;;;;;;;;;;;;;;19.59;100.00;99217.31;5052921;28;835;-63
2023/05/17 12:19:21;;;;;;;;;;;;;;;18.83;100.00;99237.03;5053605;28;929;-63
2023/05/17 12:21:48;;;;;;;;;;;;;;;18.34;100.00;99241.66;5053447;28;1910;-65
2023/05/17 12:24:16;;;;;;;;;;;;;;;18.18;100.00;99225.25;5053462;28;882;-65
2023/05/17 12:26:46;;;;;;;;;;;;;;;18.12;100.00;99216.69;5053798;28;871;-64
2023/05/17 12:29:14;;;;;;;;;;;;;;;17.93;100.00;99220.75;5053454;28;831;-65
2023/05/17 12:31:47;;;;;;;;;;;;;;;17.63;100.00;99214.06;5053343;28;820;-64
2023/05/17 12:34:16;;;;;;;;;;;;;;;17.37;100.00;99202.38;5053386;28;886;-65
2023/05/17 12:36:43;;;;;;;;;;;;;;;17.13;100.00;99202.97;5053247;28;879;-63
2023/05/17 12:39:14;;;;;;;;;;;;;;;17.15;100.00;99194.91;5053510;28;871;-63
2023/05/17 12:41:42;;;;;;;;;;;;;;;17.15;100.00;99192.13;5053165;28;1943;-62
2023/05/17 12:44:10;;;;;;;;;;;;;;;17.37;100.00;99200.41;5053004;28;899;-63
2023/05/17 12:46:35;;;;;;;;;;;;;;;17.57;100.00;99207.53;5053185;28;812;-62
2023/05/17 12:49:06;;;;;;;;;;;;;;;17.65;100.00;99194.81;5052972;28;958;-62
2023/05/17 12:51:45;;;;;;;;;;;;;;;17.82;100.00;99195.28;5053222;28;902;-62
2023/05/17 12:54:24;;;;;;;;;;;;;;;18.06;100.00;99192.63;5052965;28;871;-62
2023/05/17 12:56:51;;;;;;;;;;;;;;;18.02;100.00;99189.22;5052971;28;827;-64
2023/05/17 12:59:24;;;;;;;;;;;;;;;17.98;100.00;99197.75;5053056;28;800;-63
2023/05/17 13:01:52;;;;;;;;;;;;;;;17.97;100.00;99207.41;5052713;28;1862;-64
2023/05/17 13:04:19;;;;;;;;;;;;;;;17.77;100.00;99202.25;5052686;28;820;-63
2023/05/17 13:06:53;;;;;;;;;;;;;;;17.57;100.00;99211.09;5052804;28;851;-63
2023/05/17 13:09:22;;;;;;;;;;;;;;;17.48;100.00;99213.91;5052567;28;900;-64
2023/05/17 13:11:56;;;;;;;;;;;;;;;17.27;100.00;99216.34;5052344;28;1212;-63
2023/05/17 13:14:42;;;;;;;;;;;;;;;17.06;100.00;99222.81;5052541;28;902;-63
2023/05/17 13:17:21;;;;;;;;;;;;;;;16.87;100.00;99202.44;5052552;28;883;-62
2023/05/17 13:19:48;;;;;;;;;;;;;;;16.70;100.00;99201.88;5052422;28;827;-63
2023/05/17 13:22:15;;;;;;;;;;;;;;;16.60;100.00;99208.66;5052349;28;1906;-62
2023/05/17 13:24:43;;;;;;;;;;;;;;;16.48;100.00;99207.53;5052294;28;914;-62
2023/05/17 13:27:11;;;;;;;;;;;;;;;16.52;100.00;99206.16;5052045;28;871;-62
2023/05/17 13:30:00;;;;;;;;;;;;;;;16.64;100.00;99212.88;5051626;28;867;-64
2023/05/17 13:32:28;;;;;;;;;;;;;;;16.81;100.00;99212.66;5052122;28;827;-64